createdAt,value
2023-02-06T00:02:20.062Z,87.99
2023-02-06T00:32:24.206Z,84.31
2023-02-06T01:02:28.288Z,84.84
2023-02-06T01:32:32.350Z,85.01
2023-02-06T02:02:38.778Z,82.91
2023-02-06T02:33:00.452Z,82.12
2023-02-06T03:03:06.294Z,81.83
2023-02-06T03:33:12.008Z,81.51
2023-02-06T04:03:16.695Z,81.95
2023-02-06T04:33:20.774Z,83.17
2023-02-06T05:03:25.326Z,83.95
2023-02-06T05:33:29.836Z,85.59
2023-02-06T06:03:34.415Z,87.09
2023-02-06T06:33:38.937Z,86.78
2023-02-06T07:03:44.706Z,88.33
2023-02-06T07:33:49.165Z,87.81
2023-02-06T08:03:53.656Z,85.38
2023-02-06T08:33:57.667Z,83.58
2023-02-06T09:04:06.307Z,79.03
2023-02-06T09:34:12.816Z,59.64
2023-02-06T10:04:34.614Z,60.78
2023-02-06T10:34:58.778Z,32.69
2023-02-06T11:05:06.598Z,25.68
2023-02-06T11:35:25.050Z,27.84
2023-02-06T12:05:36.330Z,28.30
2023-02-06T12:35:46.635Z,28.34
2023-02-06T13:05:54.410Z,53.02
2023-02-06T13:36:01.621Z,57.10
2023-02-06T14:06:14.613Z,53.99
2023-02-06T14:36:29.668Z,58.96
2023-02-06T15:06:37.675Z,57.36
2023-02-06T15:36:42.157Z,62.17
2023-02-06T16:06:47.052Z,61.17
2023-02-06T16:36:51.283Z,63.20
2023-02-06T17:06:55.349Z,64.60
2023-02-06T17:37:00.225Z,68.29
2023-02-06T18:07:05.356Z,69.88
2023-02-06T18:37:10.074Z,71.73
2023-02-06T19:07:15.437Z,72.19
2023-02-06T19:37:19.640Z,72.86
2023-02-06T20:07:24.505Z,75.51
2023-02-06T20:37:28.808Z,75.94
2023-02-06T21:07:33.325Z,76.04
2023-02-06T21:37:39.609Z,76.47
2023-02-06T22:07:43.994Z,75.48
2023-02-06T22:37:48.148Z,73.35
2023-02-06T23:07:52.014Z,73.47
2023-02-06T23:37:56.150Z,72.73
